Details for FedEx at PANC




Go Back


Latest METAR
Local Time

PANC 232353Z 03006KT 10SM BKN200 M04/M11 A3011 RMK AO2 SLP198 4/017 T10391106 11022 21089 58028

23/02/2018, 15:02:59

Description
Results
FedEx Logo
Number of Pilots based at PANC
0 Pilots Based here
Number of FedEx Flights Departed from PANC
0 Flights Departed
Number of FedEx Flights Arrived at PANC
0 Flights Arrived
Number of FedEx Schedules Departing from PANC
69 Schedules
Number of FedEx Schedules Arriving at PANC
68 Schedules
Number of FedEx Schedules Departing from PANC availible today
18 Schedules Today
Number of FedEx Schedules Arriving at PANC availible today
18 Schedules Today
Average Landing Rate at PANC
-235 fpm
FedEx Average Landing Rate at PANC
0 fpm
Total Fuel Purchased at PANC by FedEx
0.00 kgs / 0.00 lbs

Pilots Based at PANC


Pilot ID
Pilot Name
Pilot Rank
No. of Flights
No. of Flying Hours
There are no pilots assigned to this hub!   Will you be the first?
Content